sensor_id;sensor_type;location;lat;lon;timestamp;pressure;altitude;pressure_sealevel;temperature;humidity
30421;BME280;17218;54.070;10.012;2023-03-03T00:00:01;102365.44;;;-0.80;100.00
30421;BME280;17218;54.070;10.012;2023-03-03T00:02:28;102358.47;;;-0.82;100.00
30421;BME280;17218;54.070;10.012;2023-03-03T00:04:54;102358.66;;;-0.79;100.00
30421;BME280;17218;54.070;10.012;2023-03-03T00:07:21;102357.34;;;-0.74;100.00
30421;BME280;17218;54.070;10.012;2023-03-03T00:09:48;102354.19;;;-0.83;100.00
30421;BME280;17218;54.070;10.012;2023-03-03T00:12:20;102353.56;;;-0.79;100.00
30421;BME280;17218;54.070;10.012;2023-03-03T00:14:51;102346.84;;;-0.79;100.00
30421;BME280;17218;54.070;10.012;2023-03-03T00:17:21;102355.34;;;-0.78;100.00
30421;BME280;17218;54.070;10.012;2023-03-03T00:19:48;102356.63;;;-0.72;100.00
30421;BME280;17218;54.070;10.012;2023-03-03T00:22:24;102356.56;;;-0.59;100.00
30421;BME280;17218;54.070;10.012;2023-03-03T00:24:52;102349.31;;;-0.53;100.00
30421;BME280;17218;54.070;10.012;2023-03-03T00:27:26;102327.38;;;-0.51;100.00
30421;BME280;17218;54.070;10.012;2023-03-03T00:29:56;102318.09;;;-0.51;100.00
30421;BME280;17218;54.070;10.012;2023-03-03T00:32:25;102307.91;;;-0.51;100.00
30421;BME280;17218;54.070;10.012;2023-03-03T00:34:53;102288.03;;;-0.56;100.00
30421;BME280;17218;54.070;10.012;2023-03-03T00:37:31;102263.06;;;-0.62;100.00
30421;BME280;17218;54.070;10.012;2023-03-03T00:40:07;102265.59;;;-0.62;100.00
30421;BME280;17218;54.070;10.012;2023-03-03T00:42:37;102265.69;;;-0.61;100.00
30421;BME280;17218;54.070;10.012;2023-03-03T00:45:17;102247.97;;;-0.59;100.00
30421;BME280;17218;54.070;10.012;2023-03-03T00:47:47;102249.25;;;-0.66;100.00
30421;BME280;17218;54.070;10.012;2023-03-03T00:50:33;102242.09;;;-0.72;100.00
30421;BME280;17218;54.070;10.012;2023-03-03T00:53:05;102233.47;;;-0.74;100.00
30421;BME280;17218;54.070;10.012;2023-03-03T00:55:33;102246.03;;;-0.77;100.00
30421;BME280;17218;54.070;10.012;2023-03-03T00:57:59;102250.44;;;-0.88;100.00
30421;BME280;17218;54.070;10.012;2023-03-03T01:00:27;102248.47;;;-0.92;100.00
30421;BME280;17218;54.070;10.012;2023-03-03T01:02:54;102247.38;;;-0.96;100.00
30421;BME280;17218;54.070;10.012;2023-03-03T01:05:21;102235.94;;;-1.02;100.00
30421;BME280;17218;54.070;10.012;2023-03-03T01:07:47;102246.19;;;-1.01;100.00
30421;BME280;17218;54.070;10.012;2023-03-03T01:10:14;102244.84;;;-0.96;100.00
30421;BME280;17218;54.070;10.012;2023-03-03T01:12:40;102245.72;;;-0.95;100.00
30421;BME280;17218;54.070;10.012;2023-03-03T01:15:09;102243.84;;;-0.98;100.00
30421;BME280;17218;54.070;10.012;2023-03-03T01:17:37;102247.56;;;-0.92;100.00
30421;BME280;17218;54.070;10.012;2023-03-03T01:20:10;102244.34;;;-0.90;100.00
30421;BME280;17218;54.070;10.012;2023-03-03T01:22:37;102250.25;;;-0.91;100.00
30421;BME280;17218;54.070;10.012;2023-03-03T01:25:04;102257.97;;;-0.89;100.00
30421;BME280;17218;54.070;10.012;2023-03-03T01:27:33;102244.25;;;-0.91;100.00
30421;BME280;17218;54.070;10.012;2023-03-03T01:30:00;102245.53;;;-0.98;100.00
30421;BME280;17218;54.070;10.012;2023-03-03T01:32:26;102235.84;;;-1.04;100.00
30421;BME280;17218;54.070;10.012;2023-03-03T01:34:54;102237.41;;;-1.06;100.00
30421;BME280;17218;54.070;10.012;2023-03-03T01:37:21;102237.69;;;-1.15;100.00
30421;BME280;17218;54.070;10.012;2023-03-03T01:39:49;102228.84;;;-1.20;100.00
30421;BME280;17218;54.070;10.012;2023-03-03T01:42:15;102236.56;;;-1.32;100.00
30421;BME280;17218;54.070;10.012;2023-03-03T01:44:42;102228.22;;;-1.43;100.00
30421;BME280;17218;54.070;10.012;2023-03-03T01:47:10;102233.00;;;-1.48;100.00
30421;BME280;17218;54.070;10.012;2023-03-03T01:49:40;102231.34;;;-1.47;100.00
30421;BME280;17218;54.070;10.012;2023-03-03T01:52:13;102224.00;;;-1.56;100.00
30421;BME280;17218;54.070;10.012;2023-03-03T01:54:48;102222.28;;;-1.69;100.00
30421;BME280;17218;54.070;10.012;2023-03-03T01:57:18;102219.56;;;-1.72;100.00
30421;BME280;17218;54.070;10.012;2023-03-03T01:59:48;102226.44;;;-1.83;100.00
30421;BME280;17218;54.070;10.012;2023-03-03T02:02:16;102232.75;;;-1.90;100.00
30421;BME280;17218;54.070;10.012;2023-03-03T02:04:43;102225.22;;;-1.88;100.00
30421;BME280;17218;54.070;10.012;2023-03-03T02:07:13;102224.22;;;-1.78;100.00
30421;BME280;17218;54.070;10.012;2023-03-03T02:09:48;102219.78;;;-1.81;100.00
30421;BME280;17218;54.070;10.012;2023-03-03T02:12:18;102224.47;;;-1.87;100.00
30421;BME280;17218;54.070;10.012;2023-03-03T02:14:47;102229.84;;;-1.83;100.00
30421;BME280;17218;54.070;10.012;2023-03-03T02:17:13;102225.75;;;-1.81;100.00
30421;BME280;17218;54.070;10.012;2023-03-03T02:19:46;102226.38;;;-1.71;100.00
30421;BME280;17218;54.070;10.012;2023-03-03T02:22:20;102227.63;;;-1.78;100.00
30421;BME280;17218;54.070;10.012;2023-03-03T02:24:50;102224.47;;;-1.87;100.00
30421;BME280;17218;54.070;10.012;2023-03-03T02:27:19;102217.16;;;-1.83;100.00
30421;BME280;17218;54.070;10.012;2023-03-03T02:29:46;102222.19;;;-1.96;100.00
30421;BME280;17218;54.070;10.012;2023-03-03T02:32:12;102223.75;;;-1.98;100.00
30421;BME280;17218;54.070;10.012;2023-03-03T02:34:46;102228.59;;;-2.01;100.00
30421;BME280;17218;54.070;10.012;2023-03-03T02:37:13;102235.19;;;-1.92;100.00
30421;BME280;17218;54.070;10.012;2023-03-03T02:39:39;102246.41;;;-1.76;100.00
30421;BME280;17218;54.070;10.012;2023-03-03T02:42:09;102240.19;;;-1.68;100.00
30421;BME280;17218;54.070;10.012;2023-03-03T02:44:39;102240.88;;;-1.70;100.00
30421;BME280;17218;54.070;10.012;2023-03-03T02:47:06;102236.44;;;-1.73;100.00
30421;BME280;17218;54.070;10.012;2023-03-03T02:49:34;102249.81;;;-1.75;100.00
30421;BME280;17218;54.070;10.012;2023-03-03T02:52:03;102250.41;;;-1.80;100.00
30421;BME280;17218;54.070;10.012;2023-03-03T02:54:30;102251.16;;;-1.81;100.00
30421;BME280;17218;54.070;10.012;2023-03-03T02:56:57;102236.03;;;-1.79;100.00
30421;BME280;17218;54.070;10.012;2023-03-03T02:59:24;102233.28;;;-1.82;100.00
30421;BME280;17218;54.070;10.012;2023-03-03T03:01:53;102228.19;;;-1.82;100.00
30421;BME280;17218;54.070;10.012;2023-03-03T03:04:21;102227.66;;;-1.90;100.00
30421;BME280;17218;54.070;10.012;2023-03-03T03:06:49;102224.03;;;-1.94;100.00
30421;BME280;17218;54.070;10.012;2023-03-03T03:09:16;102221.69;;;-2.16;100.00
30421;BME280;17218;54.070;10.012;2023-03-03T03:11:43;102215.75;;;-2.17;100.00
30421;BME280;17218;54.070;10.012;2023-03-03T03:14:12;102231.09;;;-2.15;100.00
30421;BME280;17218;54.070;10.012;2023-03-03T03:16:39;102224.13;;;-2.18;100.00
30421;BME280;17218;54.070;10.012;2023-03-03T03:19:07;102222.72;;;-2.26;100.00
30421;BME280;17218;54.070;10.012;2023-03-03T03:21:33;102224.16;;;-2.42;100.00
30421;BME280;17218;54.070;10.012;2023-03-03T03:24:00;102228.16;;;-2.45;100.00
30421;BME280;17218;54.070;10.012;2023-03-03T03:26:26;102222.88;;;-2.60;100.00
30421;BME280;17218;54.070;10.012;2023-03-03T03:28:53;102209.44;;;-2.59;100.00
30421;BME280;17218;54.070;10.012;2023-03-03T03:31:20;102217.09;;;-2.46;100.00
30421;BME280;17218;54.070;10.012;2023-03-03T03:33:47;102212.72;;;-2.48;100.00
30421;BME280;17218;54.070;10.012;2023-03-03T03:36:15;102199.34;;;-2.46;100.00
30421;BME280;17218;54.070;10.012;2023-03-03T03:38:42;102205.66;;;-2.41;100.00
30421;BME280;17218;54.070;10.012;2023-03-03T03:41:10;102201.22;;;-2.43;100.00
30421;BME280;17218;54.070;10.012;2023-03-03T03:43:36;102199.94;;;-2.50;100.00
30421;BME280;17218;54.070;10.012;2023-03-03T03:46:03;102195.72;;;-2.49;100.00
30421;BME280;17218;54.070;10.012;2023-03-03T03:48:30;102206.53;;;-2.52;100.00
30421;BME280;17218;54.070;10.012;2023-03-03T03:50:56;102194.09;;;-2.61;100.00
30421;BME280;17218;54.070;10.012;2023-03-03T03:53:24;102203.47;;;-2.60;100.00
30421;BME280;17218;54.070;10.012;2023-03-03T03:55:51;102201.38;;;-2.54;100.00
30421;BME280;17218;54.070;10.012;2023-03-03T03:58:17;102188.56;;;-2.55;100.00
30421;BME280;17218;54.070;10.012;2023-03-03T04:00:45;102194.16;;;-2.47;100.00
30421;BME280;17218;54.070;10.012;2023-03-03T04:03:12;102201.69;;;-2.49;100.00
30421;BME280;17218;54.070;10.012;2023-03-03T04:05:39;102186.00;;;-2.43;100.00
30421;BME280;17218;54.070;10.012;2023-03-03T04:08:06;102184.91;;;-2.47;100.00
30421;BME280;17218;54.070;10.012;2023-03-03T04:10:33;102194.84;;;-2.50;100.00
30421;BME280;17218;54.070;10.012;2023-03-03T04:13:00;102195.06;;;-2.59;100.00
30421;BME280;17218;54.070;10.012;2023-03-03T04:15:26;102193.44;;;-2.70;100.00
30421;BME280;17218;54.070;10.012;2023-03-03T04:17:53;102189.22;;;-2.70;100.00
30421;BME280;17218;54.070;10.012;2023-03-03T04:20:19;102197.72;;;-2.69;100.00
30421;BME280;17218;54.070;10.012;2023-03-03T04:22:46;102197.63;;;-2.71;100.00
30421;BME280;17218;54.070;10.012;2023-03-03T04:25:14;102195.09;;;-2.71;100.00
30421;BME280;17218;54.070;10.012;2023-03-03T04:27:42;102202.47;;;-2.62;100.00
30421;BME280;17218;54.070;10.012;2023-03-03T04:30:10;102208.88;;;-2.79;100.00
30421;BME280;17218;54.070;10.012;2023-03-03T04:32:37;102208.13;;;-2.78;100.00
30421;BME280;17218;54.070;10.012;2023-03-03T04:35:04;102199.06;;;-2.74;100.00
30421;BME280;17218;54.070;10.012;2023-03-03T04:44:15;102213.06;;;-2.68;100.00
30421;BME280;17218;54.070;10.012;2023-03-03T04:46:42;102207.00;;;-2.70;100.00
30421;BME280;17218;54.070;10.012;2023-03-03T04:49:09;102199.50;;;-2.68;100.00
30421;BME280;17218;54.070;10.012;2023-03-03T04:51:35;102192.91;;;-2.78;100.00
30421;BME280;17218;54.070;10.012;2023-03-03T04:54:02;102197.63;;;-2.95;100.00
30421;BME280;17218;54.070;10.012;2023-03-03T04:56:29;102195.09;;;-2.95;100.00
30421;BME280;17218;54.070;10.012;2023-03-03T04:58:55;102191.22;;;-3.14;100.00
30421;BME280;17218;54.070;10.012;2023-03-03T05:01:23;102185.41;;;-3.13;100.00
30421;BME280;17218;54.070;10.012;2023-03-03T05:03:50;102181.84;;;-3.27;100.00
30421;BME280;17218;54.070;10.012;2023-03-03T05:06:16;102198.59;;;-3.41;100.00
30421;BME280;17218;54.070;10.012;2023-03-03T05:08:43;102199.16;;;-3.33;100.00
30421;BME280;17218;54.070;10.012;2023-03-03T05:11:09;102203.25;;;-3.11;100.00
30421;BME280;17218;54.070;10.012;2023-03-03T05:13:36;102226.19;;;-2.97;100.00
30421;BME280;17218;54.070;10.012;2023-03-03T05:16:03;102219.69;;;-2.82;100.00
30421;BME280;17218;54.070;10.012;2023-03-03T05:18:31;102209.09;;;-2.76;100.00
30421;BME280;17218;54.070;10.012;2023-03-03T05:21:01;102215.72;;;-2.78;100.00
30421;BME280;17218;54.070;10.012;2023-03-03T05:23:27;102215.38;;;-2.71;100.00
30421;BME280;17218;54.070;10.012;2023-03-03T05:25:54;102218.59;;;-2.61;100.00
30421;BME280;17218;54.070;10.012;2023-03-03T05:28:20;102210.53;;;-2.56;100.00
30421;BME280;17218;54.070;10.012;2023-03-03T05:30:47;102219.66;;;-2.46;100.00
30421;BME280;17218;54.070;10.012;2023-03-03T05:33:15;102223.16;;;-2.32;100.00
30421;BME280;17218;54.070;10.012;2023-03-03T05:35:43;102220.19;;;-2.26;100.00
30421;BME280;17218;54.070;10.012;2023-03-03T05:38:10;102214.41;;;-2.23;100.00
30421;BME280;17218;54.070;10.012;2023-03-03T05:40:37;102215.56;;;-2.32;100.00
30421;BME280;17218;54.070;10.012;2023-03-03T05:43:04;102221.47;;;-2.19;100.00
30421;BME280;17218;54.070;10.012;2023-03-03T05:45:31;102228.03;;;-2.35;100.00
30421;BME280;17218;54.070;10.012;2023-03-03T05:47:58;102230.78;;;-2.44;100.00
30421;BME280;17218;54.070;10.012;2023-03-03T05:50:25;102234.25;;;-2.55;100.00
30421;BME280;17218;54.070;10.012;2023-03-03T05:52:52;102232.47;;;-2.44;100.00
30421;BME280;17218;54.070;10.012;2023-03-03T05:55:19;102223.38;;;-2.29;100.00
30421;BME280;17218;54.070;10.012;2023-03-03T05:57:45;102229.44;;;-2.26;100.00
30421;BME280;17218;54.070;10.012;2023-03-03T06:00:13;102235.06;;;-2.19;100.00
30421;BME280;17218;54.070;10.012;2023-03-03T06:02:40;102227.00;;;-2.25;100.00
30421;BME280;17218;54.070;10.012;2023-03-03T06:05:08;102223.81;;;-2.22;100.00
30421;BME280;17218;54.070;10.012;2023-03-03T06:07:35;102229.31;;;-2.16;100.00
30421;BME280;17218;54.070;10.012;2023-03-03T06:10:05;102222.38;;;-2.19;100.00
30421;BME280;17218;54.070;10.012;2023-03-03T06:12:31;102234.63;;;-2.25;100.00
30421;BME280;17218;54.070;10.012;2023-03-03T06:14:58;102232.53;;;-2.19;100.00
30421;BME280;17218;54.070;10.012;2023-03-03T06:17:24;102238.72;;;-2.27;100.00
30421;BME280;17218;54.070;10.012;2023-03-03T06:19:51;102234.28;;;-2.18;100.00
30421;BME280;17218;54.070;10.012;2023-03-03T06:22:17;102240.44;;;-2.02;100.00
30421;BME280;17218;54.070;10.012;2023-03-03T06:24:44;102233.16;;;-2.09;100.00
30421;BME280;17218;54.070;10.012;2023-03-03T06:27:12;102237.72;;;-2.17;100.00
30421;BME280;17218;54.070;10.012;2023-03-03T06:29:38;102226.38;;;-2.34;100.00
30421;BME280;17218;54.070;10.012;2023-03-03T06:32:04;102229.56;;;-2.25;100.00
30421;BME280;17218;54.070;10.012;2023-03-03T06:34:31;102239.69;;;-2.13;100.00
30421;BME280;17218;54.070;10.012;2023-03-03T06:36:57;102244.69;;;-1.89;100.00
30421;BME280;17218;54.070;10.012;2023-03-03T06:39:24;102238.06;;;-1.87;100.00
30421;BME280;17218;54.070;10.012;2023-03-03T06:41:50;102234.63;;;-1.87;100.00
30421;BME280;17218;54.070;10.012;2023-03-03T06:44:18;102238.88;;;-1.74;100.00
30421;BME280;17218;54.070;10.012;2023-03-03T06:46:45;102232.63;;;-1.80;100.00
30421;BME280;17218;54.070;10.012;2023-03-03T06:49:11;102237.47;;;-1.83;100.00
30421;BME280;17218;54.070;10.012;2023-03-03T06:51:38;102258.34;;;-1.75;100.00
30421;BME280;17218;54.070;10.012;2023-03-03T06:54:10;102261.19;;;-1.70;100.00
30421;BME280;17218;54.070;10.012;2023-03-03T06:56:38;102265.41;;;-1.57;100.00
30421;BME280;17218;54.070;10.012;2023-03-03T06:59:10;102261.13;;;-1.58;100.00
30421;BME280;17218;54.070;10.012;2023-03-03T07:01:39;102256.31;;;-1.67;100.00
30421;BME280;17218;54.070;10.012;2023-03-03T07:04:23;102260.25;;;-1.59;100.00
30421;BME280;17218;54.070;10.012;2023-03-03T07:06:53;102250.66;;;-1.37;100.00
30421;BME280;17218;54.070;10.012;2023-03-03T07:09:21;102243.28;;;-1.46;100.00
30421;BME280;17218;54.070;10.012;2023-03-03T07:11:49;102237.44;;;-1.71;100.00
30421;BME280;17218;54.070;10.012;2023-03-03T07:14:18;102248.16;;;-1.49;100.00
30421;BME280;17218;54.070;10.012;2023-03-03T07:16:50;102255.44;;;-1.28;100.00
30421;BME280;17218;54.070;10.012;2023-03-03T07:19:21;102256.56;;;-1.11;100.00
30421;BME280;17218;54.070;10.012;2023-03-03T07:21:49;102255.41;;;-1.03;100.00
30421;BME280;17218;54.070;10.012;2023-03-03T07:24:27;102266.97;;;-0.94;100.00
30421;BME280;17218;54.070;10.012;2023-03-03T07:26:58;102254.44;;;-0.64;100.00
30421;BME280;17218;54.070;10.012;2023-03-03T07:29:26;102259.53;;;-0.51;100.00
30421;BME280;17218;54.070;10.012;2023-03-03T07:31:56;102272.25;;;-0.37;100.00
30421;BME280;17218;54.070;10.012;2023-03-03T07:34:26;102262.44;;;-0.31;100.00
30421;BME280;17218;54.070;10.012;2023-03-03T07:36:57;102266.53;;;-0.19;100.00
30421;BME280;17218;54.070;10.012;2023-03-03T07:39:29;102272.19;;;-0.10;100.00
30421;BME280;17218;54.070;10.012;2023-03-03T07:42:12;102277.78;;;-0.16;100.00
30421;BME280;17218;54.070;10.012;2023-03-03T07:44:40;102272.38;;;-0.07;100.00
30421;BME280;17218;54.070;10.012;2023-03-03T07:47:21;102263.50;;;-0.14;100.00
30421;BME280;17218;54.070;10.012;2023-03-03T07:49:49;102277.38;;;-0.08;100.00
30421;BME280;17218;54.070;10.012;2023-03-03T07:52:28;102281.72;;;-0.21;100.00
30421;BME280;17218;54.070;10.012;2023-03-03T07:54:58;102275.84;;;-0.20;100.00
30421;BME280;17218;54.070;10.012;2023-03-03T07:57:28;102263.56;;;-0.12;100.00
30421;BME280;17218;54.070;10.012;2023-03-03T08:02:54;102266.69;;;-0.03;100.00
30421;BME280;17218;54.070;10.012;2023-03-03T08:05:28;102276.03;;;0.26;100.00
30421;BME280;17218;54.070;10.012;2023-03-03T08:08:09;102266.25;;;0.33;100.00
30421;BME280;17218;54.070;10.012;2023-03-03T08:10:42;102261.28;;;0.35;100.00
30421;BME280;17218;54.070;10.012;2023-03-03T08:13:16;102266.81;;;0.43;100.00
30421;BME280;17218;54.070;10.012;2023-03-03T08:15:44;102262.50;;;0.42;100.00
30421;BME280;17218;54.070;10.012;2023-03-03T08:18:21;102258.84;;;0.52;100.00
30421;BME280;17218;54.070;10.012;2023-03-03T08:20:50;102254.53;;;0.66;100.00
30421;BME280;17218;54.070;10.012;2023-03-03T08:23:19;102254.38;;;0.63;100.00
30421;BME280;17218;54.070;10.012;2023-03-03T08:25:46;102241.78;;;0.66;100.00
30421;BME280;17218;54.070;10.012;2023-03-03T08:28:14;102244.84;;;0.60;100.00
30421;BME280;17218;54.070;10.012;2023-03-03T08:30:41;102251.53;;;0.58;100.00
30421;BME280;17218;54.070;10.012;2023-03-03T08:33:08;102253.31;;;0.74;100.00
30421;BME280;17218;54.070;10.012;2023-03-03T08:35:36;102251.56;;;0.73;100.00
30421;BME280;17218;54.070;10.012;2023-03-03T08:38:03;102258.59;;;0.92;100.00
30421;BME280;17218;54.070;10.012;2023-03-03T08:40:31;102253.75;;;0.97;100.00
30421;BME280;17218;54.070;10.012;2023-03-03T08:42:57;102251.28;;;1.14;100.00
30421;BME280;17218;54.070;10.012;2023-03-03T08:45:25;102271.41;;;1.24;100.00
30421;BME280;17218;54.070;10.012;2023-03-03T08:47:52;102259.53;;;1.25;100.00
30421;BME280;17218;54.070;10.012;2023-03-03T08:50:19;102269.72;;;1.40;100.00
30421;BME280;17218;54.070;10.012;2023-03-03T08:52:47;102262.22;;;1.43;100.00
30421;BME280;17218;54.070;10.012;2023-03-03T08:55:13;102268.53;;;1.33;100.00
30421;BME280;17218;54.070;10.012;2023-03-03T08:57:40;102255.97;;;1.53;100.00
30421;BME280;17218;54.070;10.012;2023-03-03T09:00:09;102257.94;;;1.74;100.00
30421;BME280;17218;54.070;10.012;2023-03-03T09:02:36;102262.00;;;2.03;100.00
30421;BME280;17218;54.070;10.012;2023-03-03T09:05:04;102264.88;;;1.93;100.00
30421;BME280;17218;54.070;10.012;2023-03-03T09:07:30;102260.72;;;1.78;100.00
30421;BME280;17218;54.070;10.012;2023-03-03T09:09:58;102259.22;;;1.82;100.00
30421;BME280;17218;54.070;10.012;2023-03-03T09:12:29;102254.97;;;1.83;100.00
30421;BME280;17218;54.070;10.012;2023-03-03T09:14:59;102256.31;;;1.76;100.00
30421;BME280;17218;54.070;10.012;2023-03-03T09:17:30;102260.56;;;1.75;100.00
30421;BME280;17218;54.070;10.012;2023-03-03T09:20:00;102261.59;;;1.79;100.00
30421;BME280;17218;54.070;10.012;2023-03-03T09:22:28;102260.41;;;1.89;100.00
30421;BME280;17218;54.070;10.012;2023-03-03T09:24:57;102250.19;;;2.06;100.00
30421;BME280;17218;54.070;10.012;2023-03-03T09:27:27;102258.09;;;1.77;100.00
30421;BME280;17218;54.070;10.012;2023-03-03T09:29:54;102256.53;;;1.64;100.00
30421;BME280;17218;54.070;10.012;2023-03-03T09:32:34;102260.38;;;1.72;100.00
30421;BME280;17218;54.070;10.012;2023-03-03T09:35:26;102255.66;;;1.63;100.00
30421;BME280;17218;54.070;10.012;2023-03-03T09:38:01;102259.22;;;1.82;100.00
30421;BME280;17218;54.070;10.012;2023-03-03T09:40:44;102249.56;;;1.93;100.00
30421;BME280;17218;54.070;10.012;2023-03-03T09:43:23;102274.81;;;2.20;100.00
30421;BME280;17218;54.070;10.012;2023-03-03T09:45:59;102265.59;;;2.24;100.00
30421;BME280;17218;54.070;10.012;2023-03-03T09:48:41;102268.97;;;2.06;100.00
30421;BME280;17218;54.070;10.012;2023-03-03T09:51:35;102259.63;;;2.23;100.00
30421;BME280;17218;54.070;10.012;2023-03-03T09:54:16;102261.16;;;2.36;100.00
30421;BME280;17218;54.070;10.012;2023-03-03T09:56:48;102259.56;;;2.38;100.00
30421;BME280;17218;54.070;10.012;2023-03-03T09:59:29;102250.09;;;2.54;100.00
30421;BME280;17218;54.070;10.012;2023-03-03T10:02:18;102255.50;;;2.77;100.00
30421;BME280;17218;54.070;10.012;2023-03-03T10:05:01;102252.88;;;2.94;100.00
30421;BME280;17218;54.070;10.012;2023-03-03T10:07:39;102253.06;;;2.80;100.00
30421;BME280;17218;54.070;10.012;2023-03-03T10:10:26;102261.75;;;2.66;100.00
30421;BME280;17218;54.070;10.012;2023-03-03T10:13:05;102255.69;;;2.47;100.00
30421;BME280;17218;54.070;10.012;2023-03-03T10:15:45;102248.81;;;2.62;100.00
30421;BME280;17218;54.070;10.012;2023-03-03T10:18:23;102244.78;;;2.68;100.00
30421;BME280;17218;54.070;10.012;2023-03-03T10:21:01;102249.88;;;2.49;100.00
30421;BME280;17218;54.070;10.012;2023-03-03T10:23:52;102250.44;;;2.44;100.00
30421;BME280;17218;54.070;10.012;2023-03-03T10:26:31;102257.19;;;2.60;100.00
30421;BME280;17218;54.070;10.012;2023-03-03T10:29:12;102255.13;;;2.53;100.00
30421;BME280;17218;54.070;10.012;2023-03-03T10:31:49;102257.66;;;2.69;100.00
30421;BME280;17218;54.070;10.012;2023-03-03T10:34:35;102261.25;;;2.73;100.00
30421;BME280;17218;54.070;10.012;2023-03-03T10:37:14;102247.00;;;2.26;100.00
30421;BME280;17218;54.070;10.012;2023-03-03T10:39:55;102247.88;;;2.27;100.00
30421;BME280;17218;54.070;10.012;2023-03-03T10:42:34;102248.72;;;2.44;100.00
30421;BME280;17218;54.070;10.012;2023-03-03T10:45:28;102245.50;;;2.65;100.00
30421;BME280;17218;54.070;10.012;2023-03-03T10:48:34;102253.75;;;3.13;100.00
30421;BME280;17218;54.070;10.012;2023-03-03T10:51:08;102240.00;;;3.47;100.00
30421;BME280;17218;54.070;10.012;2023-03-03T10:53:45;102241.28;;;3.57;100.00
30421;BME280;17218;54.070;10.012;2023-03-03T10:56:24;102234.16;;;3.69;100.00
30421;BME280;17218;54.070;10.012;2023-03-03T10:59:04;102227.44;;;3.91;100.00
30421;BME280;17218;54.070;10.012;2023-03-03T11:01:43;102224.94;;;3.93;100.00
30421;BME280;17218;54.070;10.012;2023-03-03T11:04:34;102224.03;;;4.32;100.00
30421;BME280;17218;54.070;10.012;2023-03-03T11:07:09;102217.38;;;4.57;100.00
30421;BME280;17218;54.070;10.012;2023-03-03T11:09:46;102211.13;;;4.50;100.00
30421;BME280;17218;54.070;10.012;2023-03-03T11:12:24;102209.78;;;4.39;100.00
30421;BME280;17218;54.070;10.012;2023-03-03T11:15:06;102204.59;;;4.37;100.00
30421;BME280;17218;54.070;10.012;2023-03-03T11:17:46;102204.56;;;3.96;100.00
30421;BME280;17218;54.070;10.012;2023-03-03T11:20:27;102199.66;;;4.01;100.00
30421;BME280;17218;54.070;10.012;2023-03-03T11:23:01;102201.94;;;3.75;100.00
30421;BME280;17218;54.070;10.012;2023-03-03T11:25:31;102208.66;;;3.92;100.00
30421;BME280;17218;54.070;10.012;2023-03-03T11:28:15;102186.25;;;4.28;100.00
30421;BME280;17218;54.070;10.012;2023-03-03T11:30:57;102181.31;;;4.75;100.00
30421;BME280;17218;54.070;10.012;2023-03-03T11:33:33;102171.72;;;4.93;100.00
30421;BME280;17218;54.070;10.012;2023-03-03T11:36:09;102177.72;;;5.16;100.00
30421;BME280;17218;54.070;10.012;2023-03-03T11:38:46;102163.38;;;5.44;100.00
30421;BME280;17218;54.070;10.012;2023-03-03T11:41:22;102169.53;;;5.72;100.00
30421;BME280;17218;54.070;10.012;2023-03-03T11:43:52;102149.03;;;6.00;100.00
30421;BME280;17218;54.070;10.012;2023-03-03T11:46:25;102151.84;;;6.32;100.00
30421;BME280;17218;54.070;10.012;2023-03-03T11:48:58;102162.03;;;6.83;100.00
30421;BME280;17218;54.070;10.012;2023-03-03T11:51:40;102153.50;;;6.84;100.00
30421;BME280;17218;54.070;10.012;2023-03-03T11:54:14;102146.66;;;6.86;100.00
30421;BME280;17218;54.070;10.012;2023-03-03T11:56:45;102146.06;;;7.23;100.00
30421;BME280;17218;54.070;10.012;2023-03-03T11:59:49;102135.03;;;7.59;100.00
30421;BME280;17218;54.070;10.012;2023-03-03T12:02:44;102145.59;;;7.07;100.00
30421;BME280;17218;54.070;10.012;2023-03-03T12:05:24;102132.66;;;6.49;100.00
30421;BME280;17218;54.070;10.012;2023-03-03T12:07:58;102139.72;;;6.04;100.00
30421;BME280;17218;54.070;10.012;2023-03-03T12:10:31;102133.25;;;5.89;100.00
30421;BME280;17218;54.070;10.012;2023-03-03T12:13:04;102124.91;;;5.96;100.00
30421;BME280;17218;54.070;10.012;2023-03-03T12:15:37;102128.81;;;5.85;100.00
30421;BME280;17218;54.070;10.012;2023-03-03T12:18:18;102120.31;;;6.12;100.00
30421;BME280;17218;54.070;10.012;2023-03-03T12:20:59;102125.03;;;6.26;100.00
30421;BME280;17218;54.070;10.012;2023-03-03T12:23:40;102134.94;;;6.13;100.00
30421;BME280;17218;54.070;10.012;2023-03-03T12:26:16;102123.66;;;6.10;100.00
30421;BME280;17218;54.070;10.012;2023-03-03T12:28:49;102127.84;;;6.32;100.00
30421;BME280;17218;54.070;10.012;2023-03-03T12:31:28;102121.34;;;6.43;100.00
30421;BME280;17218;54.070;10.012;2023-03-03T12:34:04;102120.97;;;6.60;100.00
30421;BME280;17218;54.070;10.012;2023-03-03T12:36:57;102116.91;;;6.67;100.00
30421;BME280;17218;54.070;10.012;2023-03-03T12:39:43;102123.16;;;6.75;100.00
30421;BME280;17218;54.070;10.012;2023-03-03T12:42:18;102116.28;;;6.47;100.00
30421;BME280;17218;54.070;10.012;2023-03-03T12:44:50;102111.75;;;6.39;100.00
30421;BME280;17218;54.070;10.012;2023-03-03T12:47:27;102098.44;;;6.25;100.00
30421;BME280;17218;54.070;10.012;2023-03-03T12:50:06;102107.38;;;6.11;100.00
30421;BME280;17218;54.070;10.012;2023-03-03T12:52:45;102089.44;;;6.12;100.00
30421;BME280;17218;54.070;10.012;2023-03-03T12:55:24;102094.44;;;6.07;100.00
30421;BME280;17218;54.070;10.012;2023-03-03T12:58:01;102104.25;;;6.19;100.00
30421;BME280;17218;54.070;10.012;2023-03-03T13:00:42;102095.72;;;6.20;100.00
30421;BME280;17218;54.070;10.012;2023-03-03T13:03:21;102092.84;;;6.11;100.00